West End, Texas
Current Conditions -  °F | °C
As of 4:55 PM on Wednesday 26 Nov 2014 (Local Time) from KELA Reporting Station
Clear Clear  
Wind Chill: 68°   Ceiling: Unl
Heat Index: 68°   Visibility: 10mi
Dew Point: 40°   Wind: 3mph
Humidity: 35%   Direction: 230°SW
Pressure: 30.19"   Gusts: NA
Location:  29.1916°N, 96.2212°W
Report Text: KELA 262255Z AUTO 23003KT 10SM CLR 20/04 A3019 RMK AO2 T02020042
Loading
Personal Weather Stations






























Interactive Weather Map New forecast layout! Learn more

10-Day Weather Forecast

Advertisements
Track Severe Weather on mobile